createdAt,value
2022-11-29T00:01:42.365Z,88.16
2022-11-29T00:04:11.343Z,88.09
2022-11-29T00:06:40.422Z,88.30
2022-11-29T00:09:11.594Z,88.34
2022-11-29T00:12:00.159Z,88.72
2022-11-29T00:14:29.895Z,88.70
2022-11-29T00:17:02.440Z,88.31
2022-11-29T00:19:31.650Z,88.04
2022-11-29T00:22:00.404Z,88.68
2022-11-29T00:24:31.468Z,88.96
2022-11-29T00:27:02.100Z,89.16
2022-11-29T00:29:31.546Z,89.34
2022-11-29T00:32:00.524Z,89.24
2022-11-29T00:34:29.478Z,89.43
2022-11-29T00:36:58.018Z,89.34
2022-11-29T00:39:26.765Z,90.17
2022-11-29T00:41:55.303Z,90.13
2022-11-29T00:44:25.195Z,90.04
2022-11-29T00:46:53.668Z,90.31
2022-11-29T00:49:22.117Z,89.80
2022-11-29T00:51:50.811Z,90.28
2022-11-29T00:54:19.394Z,89.61
2022-11-29T00:56:47.871Z,89.76
2022-11-29T00:59:16.392Z,89.71
2022-11-29T01:01:46.368Z,90.18
2022-11-29T01:04:15.010Z,90.30
2022-11-29T01:06:43.539Z,90.08
2022-11-29T01:09:12.081Z,90.99
2022-11-29T01:11:40.526Z,91.00
2022-11-29T01:14:09.265Z,90.91
2022-11-29T01:16:37.812Z,91.71
2022-11-29T01:19:07.983Z,91.31
2022-11-29T01:21:36.644Z,91.30
2022-11-29T01:24:05.610Z,91.86
2022-11-29T01:26:34.412Z,91.71
2022-11-29T01:29:02.903Z,91.48
2022-11-29T01:31:35.835Z,91.70
2022-11-29T01:34:05.774Z,91.50
2022-11-29T01:36:35.874Z,91.60
2022-11-29T01:39:05.633Z,91.86
2022-11-29T01:41:36.315Z,91.56
2022-11-29T01:44:07.689Z,91.89
2022-11-29T01:46:38.270Z,91.18
2022-11-29T01:49:11.784Z,91.16
2022-11-29T01:51:44.293Z,91.50
2022-11-29T01:54:14.850Z,91.71
2022-11-29T01:56:46.371Z,92.10
2022-11-29T01:59:19.699Z,91.72
2022-11-29T02:01:48.806Z,91.92
2022-11-29T02:04:18.550Z,91.01
2022-11-29T02:06:48.394Z,91.25
2022-11-29T02:09:20.236Z,90.98
2022-11-29T02:12:12.966Z,91.42
2022-11-29T02:15:02.209Z,91.97
2022-11-29T02:17:38.741Z,91.98
2022-11-29T02:20:48.476Z,91.17
2022-11-29T02:23:41.267Z,91.20
2022-11-29T02:26:22.814Z,91.18
2022-11-29T02:29:13.441Z,91.12
2022-11-29T02:32:08.191Z,91.80
2022-11-29T02:35:12.475Z,91.28
2022-11-29T02:37:56.148Z,90.77
2022-11-29T02:40:44.290Z,91.00
2022-11-29T02:43:37.631Z,91.47
2022-11-29T02:46:22.231Z,91.21
2022-11-29T02:49:01.335Z,91.11
2022-11-29T02:51:40.200Z,91.54
2022-11-29T02:54:16.777Z,91.83
2022-11-29T02:56:51.695Z,91.75
2022-11-29T02:59:35.026Z,91.61
2022-11-29T03:02:11.666Z,91.51
2022-11-29T03:04:49.383Z,92.00
2022-11-29T03:07:26.342Z,91.74
2022-11-29T03:10:03.274Z,91.70
2022-11-29T03:12:39.350Z,91.90
2022-11-29T03:15:19.557Z,92.05
2022-11-29T03:18:02.229Z,91.81
2022-11-29T03:20:39.556Z,91.56
2022-11-29T03:23:25.151Z,91.44
2022-11-29T03:25:58.438Z,91.30
2022-11-29T03:28:32.078Z,91.54
2022-11-29T03:31:11.122Z,91.91
2022-11-29T03:33:50.227Z,92.14
2022-11-29T03:36:26.658Z,91.66
2022-11-29T03:39:01.655Z,91.90
2022-11-29T03:41:38.911Z,91.64
2022-11-29T03:44:12.474Z,91.94
2022-11-29T03:46:48.874Z,92.53
2022-11-29T03:49:20.226Z,91.78
2022-11-29T03:52:00.330Z,92.36
2022-11-29T03:54:38.943Z,92.22
2022-11-29T03:57:08.053Z,92.30
2022-11-29T03:59:53.375Z,92.18
2022-11-29T04:02:57.417Z,91.77
2022-11-29T04:05:41.475Z,92.72
2022-11-29T04:08:33.941Z,92.51
2022-11-29T04:11:23.965Z,92.34
2022-11-29T04:14:21.652Z,92.41
2022-11-29T04:17:22.842Z,93.18
2022-11-29T04:20:23.275Z,93.01
2022-11-29T04:23:39.758Z,92.56
2022-11-29T04:26:52.930Z,92.67
2022-11-29T04:29:40.289Z,92.36
2022-11-29T04:32:26.343Z,92.92
2022-11-29T04:35:21.371Z,92.73
2022-11-29T04:38:00.898Z,92.80
2022-11-29T04:40:46.539Z,92.74
2022-11-29T04:43:31.360Z,92.82
2022-11-29T04:46:29.800Z,93.56
2022-11-29T04:49:22.415Z,93.34
2022-11-29T04:52:11.370Z,93.15
2022-11-29T04:54:46.591Z,92.83
2022-11-29T04:57:28.400Z,93.66
2022-11-29T05:00:08.076Z,93.69
2022-11-29T05:02:44.599Z,93.57
2022-11-29T05:05:24.623Z,92.98
2022-11-29T05:08:02.582Z,93.27
2022-11-29T05:10:38.940Z,93.26
2022-11-29T05:13:12.786Z,92.67
2022-11-29T05:16:09.119Z,92.48
2022-11-29T05:18:58.472Z,93.02
2022-11-29T05:21:39.577Z,93.22
2022-11-29T05:24:21.019Z,92.77
2022-11-29T05:26:56.794Z,92.79
2022-11-29T05:29:32.299Z,93.38
2022-11-29T05:32:22.136Z,93.64
2022-11-29T05:35:04.013Z,93.39
2022-11-29T05:37:44.883Z,93.26
2022-11-29T05:40:41.144Z,93.52
2022-11-29T05:43:39.401Z,93.78
2022-11-29T05:46:13.652Z,93.30
2022-11-29T05:48:52.893Z,93.36
2022-11-29T05:51:28.588Z,93.44
2022-11-29T05:54:08.832Z,93.91
2022-11-29T05:56:44.636Z,93.79
2022-11-29T05:59:18.139Z,93.12
2022-11-29T06:01:55.258Z,93.63
2022-11-29T06:04:32.816Z,93.45
2022-11-29T06:07:07.813Z,93.62
2022-11-29T06:09:42.608Z,93.67
2022-11-29T06:12:19.623Z,93.51
2022-11-29T06:15:13.731Z,93.95
2022-11-29T06:18:03.182Z,94.32
2022-11-29T06:20:45.184Z,94.29
2022-11-29T06:23:30.768Z,94.21
2022-11-29T06:26:13.345Z,93.95
2022-11-29T06:28:54.283Z,93.92
2022-11-29T06:31:28.778Z,94.27
2022-11-29T06:34:06.237Z,94.25
2022-11-29T06:36:41.484Z,93.92
2022-11-29T06:39:10.914Z,94.23
2022-11-29T06:41:39.662Z,94.04
2022-11-29T06:44:08.865Z,94.32
2022-11-29T06:46:46.455Z,94.06
2022-11-29T06:49:24.177Z,94.60
2022-11-29T06:52:06.243Z,93.92
2022-11-29T06:54:45.989Z,93.95
2022-11-29T06:57:25.565Z,94.10
2022-11-29T07:00:11.612Z,94.17
2022-11-29T07:03:01.552Z,93.98
2022-11-29T07:05:32.688Z,93.83
2022-11-29T07:08:05.762Z,94.16
2022-11-29T07:10:37.962Z,94.36
2022-11-29T07:13:06.799Z,93.90
2022-11-29T07:15:37.819Z,94.10
2022-11-29T07:18:18.527Z,93.87
2022-11-29T07:20:59.913Z,93.48
2022-11-29T07:23:35.741Z,93.97
2022-11-29T07:26:19.888Z,93.67
2022-11-29T07:29:08.299Z,93.96
2022-11-29T07:31:49.903Z,93.91
2022-11-29T07:34:28.868Z,93.81
2022-11-29T07:37:05.056Z,94.00
2022-11-29T07:39:39.604Z,94.15
2022-11-29T07:42:14.460Z,94.26
2022-11-29T07:44:50.729Z,94.57
2022-11-29T07:47:19.346Z,94.39
2022-11-29T07:49:47.874Z,94.44
2022-11-29T07:52:17.761Z,94.44
2022-11-29T07:54:47.848Z,93.96
2022-11-29T07:57:16.426Z,94.20
2022-11-29T07:59:45.162Z,93.71
2022-11-29T08:02:14.440Z,93.78
2022-11-29T08:04:44.173Z,93.71
2022-11-29T08:07:12.840Z,93.74
2022-11-29T08:09:41.390Z,94.13
2022-11-29T08:12:11.168Z,94.34
2022-11-29T08:14:39.799Z,94.07
2022-11-29T08:17:08.294Z,94.09
2022-11-29T08:19:36.784Z,94.46
2022-11-29T08:22:05.311Z,94.26
2022-11-29T08:24:33.853Z,94.03
2022-11-29T08:27:02.327Z,94.01
2022-11-29T08:29:32.169Z,94.09
2022-11-29T08:32:00.674Z,93.82
2022-11-29T08:34:29.268Z,93.98
2022-11-29T08:36:57.832Z,94.17
2022-11-29T08:39:26.296Z,93.50
2022-11-29T08:41:54.863Z,93.68
2022-11-29T08:44:23.715Z,93.98
2022-11-29T08:47:10.913Z,93.79
2022-11-29T08:50:00.016Z,94.12
2022-11-29T08:52:46.292Z,93.85
2022-11-29T08:55:14.807Z,94.10
2022-11-29T08:57:43.293Z,93.50
2022-11-29T09:00:13.235Z,93.64
2022-11-29T09:02:43.147Z,93.63
2022-11-29T09:05:12.671Z,93.89
2022-11-29T09:07:41.146Z,94.01
2022-11-29T09:10:11.387Z,93.70
2022-11-29T09:12:40.814Z,93.65
2022-11-29T09:15:11.363Z,94.05
2022-11-29T09:17:39.877Z,94.20
2022-11-29T09:20:10.579Z,94.15
2022-11-29T09:22:39.084Z,93.85
2022-11-29T09:25:08.183Z,93.90
2022-11-29T09:27:36.670Z,93.67
2022-11-29T09:30:05.945Z,94.21
2022-11-29T09:32:35.367Z,93.42
2022-11-29T09:35:03.838Z,93.79
2022-11-29T09:37:35.031Z,94.18
2022-11-29T09:40:04.723Z,94.03
2022-11-29T09:42:47.480Z,94.14
2022-11-29T09:45:19.582Z,93.73
2022-11-29T09:48:02.306Z,93.84
2022-11-29T09:50:34.943Z,94.13
2022-11-29T09:53:19.188Z,93.14
2022-11-29T09:55:58.587Z,93.54
2022-11-29T09:58:32.726Z,93.38
2022-11-29T10:01:05.901Z,93.01
2022-11-29T10:03:39.463Z,93.61
2022-11-29T10:06:12.722Z,92.98
2022-11-29T10:08:48.669Z,93.03
2022-11-29T10:11:22.884Z,93.09
2022-11-29T10:13:55.277Z,92.94
2022-11-29T10:16:29.147Z,93.16
2022-11-29T10:19:05.789Z,92.85
2022-11-29T10:21:39.542Z,92.67
2022-11-29T10:24:14.695Z,93.18
2022-11-29T10:26:43.647Z,93.48
2022-11-29T10:29:15.284Z,93.60
2022-11-29T10:31:46.895Z,92.94
2022-11-29T10:34:16.857Z,92.75
2022-11-29T10:36:49.069Z,92.84
2022-11-29T10:39:24.151Z,92.99
2022-11-29T10:41:56.595Z,93.07
2022-11-29T10:44:26.432Z,92.72
2022-11-29T10:46:56.809Z,92.61
2022-11-29T10:49:28.910Z,93.16
2022-11-29T10:51:57.304Z,92.83
2022-11-29T10:54:40.668Z,93.12
2022-11-29T10:57:15.322Z,93.43
2022-11-29T11:00:00.146Z,93.36
2022-11-29T11:02:29.613Z,93.26
2022-11-29T11:04:59.675Z,93.10
2022-11-29T11:07:30.118Z,93.09
2022-11-29T11:10:00.985Z,93.13
2022-11-29T11:12:31.626Z,93.01
2022-11-29T11:15:16.486Z,93.36
2022-11-29T11:17:58.470Z,92.99
2022-11-29T11:20:30.334Z,92.90
2022-11-29T11:23:01.364Z,93.07
2022-11-29T11:25:34.669Z,93.05
2022-11-29T11:28:17.987Z,92.49
2022-11-29T11:30:52.988Z,92.64
2022-11-29T11:33:25.420Z,92.27
2022-11-29T11:36:06.519Z,92.47
2022-11-29T11:38:36.041Z,93.12
2022-11-29T11:41:16.632Z,92.72
2022-11-29T11:43:53.095Z,92.07
2022-11-29T11:46:21.636Z,92.44
2022-11-29T11:48:51.799Z,92.42
2022-11-29T11:51:24.166Z,92.80
2022-11-29T11:53:56.479Z,92.54
2022-11-29T11:56:35.718Z,92.67
2022-11-29T11:59:05.132Z,92.29
2022-11-29T12:01:38.888Z,91.81
2022-11-29T12:04:13.726Z,92.26
2022-11-29T12:06:50.432Z,92.08
2022-11-29T12:09:28.251Z,91.92
2022-11-29T12:12:05.319Z,91.60
2022-11-29T12:14:41.507Z,90.91
2022-11-29T12:17:23.535Z,91.28
2022-11-29T12:20:21.142Z,91.82
2022-11-29T12:23:04.657Z,91.91
2022-11-29T12:25:40.131Z,91.69
2022-11-29T12:28:15.832Z,91.44
2022-11-29T12:30:55.754Z,91.23
2022-11-29T12:33:35.377Z,90.87
2022-11-29T12:36:20.356Z,91.17
2022-11-29T12:39:15.115Z,91.31
2022-11-29T12:41:52.455Z,91.47
2022-11-29T12:44:38.757Z,90.94
2022-11-29T12:47:36.798Z,90.49
2022-11-29T12:50:18.384Z,90.24
2022-11-29T12:52:58.390Z,90.29
2022-11-29T12:55:34.446Z,91.32
2022-11-29T12:58:11.126Z,91.29
2022-11-29T13:00:48.189Z,90.51
2022-11-29T13:03:27.175Z,91.11
2022-11-29T13:06:04.063Z,90.50
2022-11-29T13:08:51.648Z,90.20
2022-11-29T13:11:25.207Z,90.30
2022-11-29T13:14:20.314Z,90.42
2022-11-29T13:16:58.861Z,90.25
2022-11-29T13:19:39.016Z,90.29
2022-11-29T13:22:14.633Z,90.37
2022-11-29T13:24:47.768Z,90.76
2022-11-29T13:27:19.983Z,90.58
2022-11-29T13:29:50.107Z,89.86
2022-11-29T13:32:32.764Z,90.60
2022-11-29T13:35:06.915Z,90.17
2022-11-29T13:37:47.474Z,90.69
2022-11-29T13:40:27.946Z,90.27
2022-11-29T13:43:04.396Z,90.88
2022-11-29T13:45:38.511Z,90.54
2022-11-29T13:51:20.193Z,90.26
2022-11-29T13:53:49.546Z,90.23
2022-11-29T13:56:29.643Z,90.92
2022-11-29T13:58:58.940Z,90.64
2022-11-29T14:01:28.815Z,90.69
2022-11-29T14:04:05.675Z,90.45
2022-11-29T14:06:37.293Z,91.29
2022-11-29T14:09:26.516Z,90.90
2022-11-29T14:12:02.787Z,90.69
2022-11-29T14:14:37.369Z,90.93
2022-11-29T14:17:07.479Z,91.16
2022-11-29T14:19:37.708Z,90.89
2022-11-29T14:22:22.811Z,91.09
2022-11-29T14:25:50.692Z,90.24
2022-11-29T14:28:32.966Z,90.39
2022-11-29T14:31:02.606Z,90.94
2022-11-29T14:33:49.708Z,91.17
2022-11-29T14:36:29.698Z,90.39
2022-11-29T14:39:14.235Z,90.25
2022-11-29T14:41:54.323Z,90.16
2022-11-29T14:44:26.025Z,90.62
2022-11-29T14:47:02.537Z,90.69
2022-11-29T14:49:32.484Z,90.21
2022-11-29T14:52:18.928Z,90.05
2022-11-29T14:54:59.056Z,89.35
2022-11-29T14:57:52.402Z,89.21
2022-11-29T15:00:22.199Z,88.96
2022-11-29T15:02:53.224Z,89.09
2022-11-29T15:05:28.599Z,89.39
2022-11-29T15:08:07.832Z,90.14
2022-11-29T15:10:42.337Z,89.80
2022-11-29T15:13:15.007Z,90.32
2022-11-29T15:16:09.308Z,90.63
2022-11-29T15:19:08.116Z,91.12
2022-11-29T15:21:45.687Z,91.42
2022-11-29T15:24:16.196Z,90.78
2022-11-29T15:26:57.484Z,90.37
2022-11-29T15:29:27.116Z,90.29
2022-11-29T15:31:58.485Z,90.54
2022-11-29T15:34:32.253Z,90.42
2022-11-29T15:37:01.644Z,90.36
2022-11-29T15:39:33.839Z,90.14
2022-11-29T15:42:10.358Z,90.26
2022-11-29T15:44:39.367Z,89.95
2022-11-29T15:47:21.822Z,90.20
2022-11-29T15:49:50.515Z,90.36
2022-11-29T15:52:24.850Z,90.90
2022-11-29T15:54:57.768Z,91.20
2022-11-29T15:57:33.689Z,90.59
2022-11-29T16:00:05.213Z,90.79
2022-11-29T16:02:37.016Z,91.10
2022-11-29T16:05:15.939Z,90.86
2022-11-29T16:07:46.011Z,90.46
2022-11-29T16:10:19.711Z,90.77
2022-11-29T16:12:54.724Z,90.52
2022-11-29T16:15:30.871Z,91.43
2022-11-29T16:18:04.923Z,91.16
2022-11-29T16:20:33.883Z,90.46
2022-11-29T16:23:12.488Z,91.14
2022-11-29T16:25:54.875Z,90.41
2022-11-29T16:28:25.138Z,90.43
2022-11-29T16:30:54.042Z,90.29
2022-11-29T16:33:25.551Z,91.08
2022-11-29T16:36:04.949Z,90.85
2022-11-29T16:38:34.138Z,90.43
2022-11-29T16:41:06.830Z,90.43
2022-11-29T16:43:55.354Z,90.50
2022-11-29T16:46:30.039Z,90.22
2022-11-29T16:49:00.737Z,90.69
2022-11-29T16:51:37.689Z,90.15
2022-11-29T16:54:21.461Z,88.96
2022-11-29T16:56:50.846Z,90.13
2022-11-29T16:59:26.537Z,90.92
2022-11-29T17:01:57.656Z,91.29
2022-11-29T17:04:26.620Z,90.74
2022-11-29T17:06:55.870Z,90.95
2022-11-29T17:09:26.579Z,91.23
2022-11-29T17:11:55.635Z,91.13
2022-11-29T17:14:25.517Z,91.42
2022-11-29T17:16:55.557Z,91.75
2022-11-29T17:19:25.514Z,91.19
2022-11-29T17:21:54.643Z,91.41
2022-11-29T17:24:24.289Z,91.30
2022-11-29T17:26:52.960Z,91.36
2022-11-29T17:29:21.493Z,91.32
2022-11-29T17:31:53.158Z,91.52
2022-11-29T17:34:22.175Z,91.47
2022-11-29T17:36:52.075Z,91.22
2022-11-29T17:39:21.617Z,91.14
2022-11-29T17:41:50.135Z,91.04
2022-11-29T17:44:18.662Z,90.95
2022-11-29T17:46:47.197Z,90.78
2022-11-29T17:49:18.571Z,91.08
2022-11-29T17:51:52.809Z,91.49
2022-11-29T17:54:22.098Z,91.46
2022-11-29T17:56:50.717Z,91.25
2022-11-29T17:59:19.260Z,91.79
2022-11-29T18:01:48.040Z,89.45
2022-11-29T18:04:18.074Z,89.24
2022-11-29T18:06:49.824Z,90.31
2022-11-29T18:09:20.357Z,90.81
2022-11-29T18:11:50.349Z,90.55
2022-11-29T18:14:21.226Z,90.52
2022-11-29T18:16:49.906Z,90.88
2022-11-29T18:19:23.215Z,90.48
2022-11-29T18:21:52.150Z,90.94
2022-11-29T18:24:20.907Z,90.93
2022-11-29T18:26:49.444Z,91.20
2022-11-29T18:29:18.132Z,91.17
2022-11-29T18:31:47.079Z,91.24
2022-11-29T18:34:15.886Z,90.28
2022-11-29T18:36:47.640Z,90.93
2022-11-29T18:39:17.982Z,90.83
2022-11-29T18:41:49.104Z,90.77
2022-11-29T18:44:19.459Z,90.78
2022-11-29T18:46:49.012Z,90.53
2022-11-29T18:49:18.711Z,90.99
2022-11-29T18:51:49.550Z,90.74
2022-11-29T18:54:19.349Z,90.79
2022-11-29T18:56:50.819Z,91.30
2022-11-29T18:59:19.482Z,90.95
2022-11-29T19:01:48.844Z,90.84
2022-11-29T19:04:19.823Z,90.86
2022-11-29T19:06:49.948Z,90.94
2022-11-29T19:09:21.541Z,91.14
2022-11-29T19:11:50.904Z,90.75
2022-11-29T19:14:20.147Z,90.53
2022-11-29T19:16:49.877Z,90.63
2022-11-29T19:19:19.651Z,90.72
2022-11-29T19:21:49.824Z,90.50
2022-11-29T19:24:19.735Z,90.47
2022-11-29T19:26:50.491Z,91.02
2022-11-29T19:29:19.107Z,90.62
2022-11-29T19:31:47.665Z,91.39
2022-11-29T19:34:16.210Z,90.84
2022-11-29T19:36:45.604Z,91.35
2022-11-29T19:39:17.097Z,91.25
2022-11-29T19:41:47.162Z,91.24
2022-11-29T19:44:15.466Z,90.68
2022-11-29T19:46:46.942Z,91.06
2022-11-29T19:49:16.045Z,91.28
2022-11-29T19:51:44.776Z,90.89
2022-11-29T19:54:14.959Z,90.90
2022-11-29T19:56:43.847Z,90.79
2022-11-29T19:59:12.363Z,90.95
2022-11-29T20:01:42.716Z,91.32
2022-11-29T20:04:13.021Z,91.36
2022-11-29T20:06:42.693Z,91.09
2022-11-29T20:09:11.815Z,91.40
2022-11-29T20:11:41.732Z,91.53
2022-11-29T20:14:13.037Z,91.39
2022-11-29T20:16:42.609Z,91.84
2022-11-29T20:19:13.308Z,91.56
2022-11-29T20:21:44.020Z,91.08
2022-11-29T20:24:14.312Z,91.41
2022-11-29T20:26:46.695Z,91.43
2022-11-29T20:29:17.057Z,91.24
2022-11-29T20:31:50.580Z,90.69
2022-11-29T20:34:21.229Z,90.65
2022-11-29T20:37:12.845Z,90.85
2022-11-29T20:39:49.112Z,90.79
2022-11-29T20:42:45.362Z,91.44
2022-11-29T20:45:15.714Z,91.60
2022-11-29T20:47:51.509Z,91.42
2022-11-29T20:50:23.868Z,91.23
2022-11-29T20:53:20.884Z,91.04
2022-11-29T20:55:50.050Z,91.05
2022-11-29T20:58:19.928Z,91.51
2022-11-29T21:00:48.571Z,91.25
2022-11-29T21:03:18.230Z,90.94
2022-11-29T21:05:47.199Z,90.96
2022-11-29T21:08:17.437Z,91.57
2022-11-29T21:10:46.391Z,91.51
2022-11-29T21:13:15.972Z,91.17
2022-11-29T21:15:46.675Z,90.96
2022-11-29T21:18:22.766Z,91.15
2022-11-29T21:21:02.866Z,91.74
2022-11-29T21:23:43.593Z,91.28
2022-11-29T21:26:21.598Z,91.22
2022-11-29T21:28:59.359Z,91.15
2022-11-29T21:31:29.914Z,91.58
2022-11-29T21:33:58.995Z,92.15
2022-11-29T21:36:28.121Z,90.86
2022-11-29T21:38:58.759Z,90.94
2022-11-29T21:41:30.767Z,90.70
2022-11-29T21:44:06.519Z,91.15
2022-11-29T21:46:37.906Z,91.79
2022-11-29T21:49:06.679Z,91.36
2022-11-29T21:51:35.160Z,91.16
2022-11-29T21:54:03.812Z,91.78
2022-11-29T21:56:32.319Z,91.36
2022-11-29T21:59:00.751Z,91.47
2022-11-29T22:01:29.517Z,90.80
2022-11-29T22:03:59.441Z,91.39
2022-11-29T22:06:29.334Z,91.38
2022-11-29T22:08:59.793Z,91.03
2022-11-29T22:11:35.359Z,91.25
2022-11-29T22:14:18.145Z,91.24
2022-11-29T22:16:48.864Z,91.02
2022-11-29T22:19:20.509Z,90.89
2022-11-29T22:21:50.741Z,91.21
2022-11-29T22:24:21.814Z,91.07
2022-11-29T22:26:51.718Z,91.12
2022-11-29T22:29:20.722Z,91.17
2022-11-29T22:31:50.583Z,90.68
2022-11-29T22:34:20.751Z,91.82
2022-11-29T22:36:49.794Z,90.90
2022-11-29T22:39:18.464Z,91.22
2022-11-29T22:41:53.696Z,91.67
2022-11-29T22:44:23.148Z,91.18
2022-11-29T22:46:51.980Z,91.25
2022-11-29T22:49:21.977Z,91.39
2022-11-29T22:51:50.470Z,91.97
2022-11-29T22:54:20.212Z,91.05
2022-11-29T22:56:48.831Z,91.46
2022-11-29T22:59:17.292Z,91.64
2022-11-29T23:01:45.876Z,91.03
2022-11-29T23:04:14.626Z,90.79
2022-11-29T23:06:45.725Z,91.53
2022-11-29T23:09:16.777Z,90.91
2022-11-29T23:11:50.920Z,90.69
2022-11-29T23:14:19.823Z,91.18
2022-11-29T23:16:48.573Z,91.13
2022-11-29T23:19:17.807Z,90.99
2022-11-29T23:21:47.873Z,91.92
2022-11-29T23:24:16.180Z,92.41
2022-11-29T23:26:46.783Z,92.15
2022-11-29T23:29:17.419Z,92.27
2022-11-29T23:31:46.902Z,91.45
2022-11-29T23:34:15.575Z,92.06
2022-11-29T23:36:48.241Z,91.70
2022-11-29T23:39:21.150Z,91.99
2022-11-29T23:41:49.621Z,91.91
2022-11-29T23:44:18.058Z,91.83
2022-11-29T23:46:46.464Z,91.71
2022-11-29T23:49:14.911Z,91.36
2022-11-29T23:51:43.417Z,91.13
2022-11-29T23:54:11.819Z,91.68
2022-11-29T23:56:41.578Z,91.33
2022-11-29T23:59:09.989Z,91.43
